createdAt,value
2023-05-20T00:02:27.209Z,33.50
2023-05-20T00:07:30.595Z,33.30
2023-05-20T00:12:35.637Z,33.50
2023-05-20T00:17:38.878Z,33.90
2023-05-20T00:22:42.078Z,33.80
2023-05-20T00:27:47.300Z,33.80
2023-05-20T00:32:50.589Z,34.30
2023-05-20T00:37:54.174Z,33.80
2023-05-20T00:42:58.957Z,34.00
2023-05-20T00:48:04.210Z,34.50
2023-05-20T00:53:08.662Z,34.10
2023-05-20T00:58:13.393Z,34.10
2023-05-20T01:03:17.791Z,34.40
2023-05-20T01:08:21.368Z,34.40
2023-05-20T01:13:32.493Z,34.30
2023-05-20T01:18:37.034Z,34.40
2023-05-20T01:23:42.853Z,34.30
2023-05-20T01:28:46.126Z,34.30
2023-05-20T01:33:55.192Z,34.20
2023-05-20T01:39:01.121Z,34.70
2023-05-20T01:44:05.137Z,34.30
2023-05-20T01:49:08.992Z,34.10
2023-05-20T01:54:14.161Z,34.10
2023-05-20T01:59:19.505Z,34.80
2023-05-20T02:04:23.025Z,34.80
2023-05-20T02:09:27.746Z,34.40
2023-05-20T02:14:31.057Z,34.80
2023-05-20T02:19:34.447Z,34.50
2023-05-20T02:24:39.389Z,34.70
2023-05-20T02:29:44.094Z,35.10
2023-05-20T02:34:47.579Z,34.60
2023-05-20T02:39:52.153Z,34.60
2023-05-20T02:44:58.472Z,35.10
2023-05-20T02:50:01.728Z,35.00
2023-05-20T02:55:07.723Z,35.60
2023-05-20T03:00:12.149Z,35.40
2023-05-20T03:05:15.324Z,35.30
2023-05-20T03:10:19.917Z,35.20
2023-05-20T03:15:23.042Z,35.50
2023-05-20T03:20:29.087Z,35.20
2023-05-20T03:25:33.887Z,35.30
2023-05-20T03:30:37.894Z,35.90
2023-05-20T03:35:41.549Z,35.50
2023-05-20T03:40:46.184Z,35.60
2023-05-20T03:45:49.359Z,36.10
2023-05-20T03:50:52.608Z,35.90
2023-05-20T03:55:58.049Z,36.60
2023-05-20T04:01:01.328Z,36.30
2023-05-20T04:06:04.956Z,36.10
2023-05-20T04:11:09.631Z,36.30
2023-05-20T04:16:12.839Z,36.80
2023-05-20T04:21:16.199Z,36.60
2023-05-20T04:26:21.054Z,36.60
2023-05-20T04:31:26.823Z,37.20
2023-05-20T04:36:31.718Z,36.90
2023-05-20T04:41:37.618Z,37.00
2023-05-20T04:46:41.668Z,37.50
2023-05-20T04:51:45.097Z,37.30
2023-05-20T04:56:49.946Z,37.30
2023-05-20T05:01:54.192Z,37.80
2023-05-20T05:06:57.380Z,37.50
2023-05-20T05:12:02.814Z,37.50
2023-05-20T05:17:06.320Z,38.20
2023-05-20T05:22:09.661Z,37.80
2023-05-20T05:27:16.207Z,37.80
2023-05-20T05:32:19.812Z,38.30
2023-05-20T05:37:23.192Z,37.90
2023-05-20T05:42:27.859Z,38.00
2023-05-20T05:47:32.805Z,38.00
2023-05-20T05:52:37.277Z,37.80
2023-05-20T05:57:42.195Z,37.90
2023-05-20T06:02:45.791Z,38.10
2023-05-20T06:07:49.023Z,38.00
2023-05-20T06:12:53.741Z,37.80
2023-05-20T06:17:57.149Z,38.00
2023-05-20T06:23:00.398Z,38.00
2023-05-20T06:28:05.340Z,37.90
2023-05-20T06:33:08.669Z,38.00
2023-05-20T06:38:11.908Z,37.90
2023-05-20T06:43:16.632Z,37.80
2023-05-20T06:48:19.909Z,38.20
2023-05-20T06:53:23.036Z,37.90
2023-05-20T06:58:27.606Z,37.80
2023-05-20T07:03:31.022Z,37.90
2023-05-20T07:08:34.325Z,37.70
2023-05-20T07:13:39.121Z,37.50
2023-05-20T07:18:42.354Z,37.50
2023-05-20T07:23:45.775Z,37.20
2023-05-20T07:28:51.607Z,37.20
2023-05-20T07:33:54.835Z,37.30
2023-05-20T07:39:04.180Z,37.10
2023-05-20T07:44:11.462Z,36.80
2023-05-20T07:49:14.668Z,36.90
2023-05-20T07:54:17.939Z,37.00
2023-05-20T07:59:22.617Z,37.20
2023-05-20T08:04:27.782Z,37.00
2023-05-20T08:09:32.786Z,36.80
2023-05-20T08:14:37.505Z,36.60
2023-05-20T08:19:41.072Z,35.90
2023-05-20T08:24:44.167Z,36.20
2023-05-20T08:29:48.691Z,36.10
2023-05-20T08:34:51.954Z,35.90
2023-05-20T08:39:55.232Z,36.10
2023-05-20T08:45:01.192Z,35.60
2023-05-20T08:50:04.605Z,34.90
2023-05-20T08:55:11.462Z,35.30
2023-05-20T09:00:18.351Z,34.60
2023-05-20T09:05:22.322Z,34.80
2023-05-20T09:10:27.291Z,34.30
2023-05-20T09:20:37.309Z,32.90
2023-05-20T09:25:40.742Z,33.70
2023-05-20T09:30:46.157Z,34.00
2023-05-20T09:35:51.295Z,33.60
2023-05-20T09:40:55.614Z,33.00
2023-05-20T09:46:00.973Z,33.20
2023-05-20T09:51:05.386Z,32.10
2023-05-20T09:56:08.885Z,32.50
2023-05-20T10:01:13.607Z,32.60
2023-05-20T10:06:34.216Z,31.80
2023-05-20T10:11:42.526Z,31.10
2023-05-20T10:16:52.736Z,31.60
2023-05-20T10:22:00.239Z,31.40
2023-05-20T10:27:05.243Z,30.70
2023-05-20T10:32:09.885Z,30.90
2023-05-20T10:37:24.317Z,30.10
2023-05-20T10:42:31.437Z,30.00
2023-05-20T10:47:36.757Z,29.60
2023-05-20T10:52:40.473Z,29.90
2023-05-20T10:57:44.271Z,30.60
2023-05-20T11:02:50.559Z,30.00
2023-05-20T11:08:04.469Z,29.80
2023-05-20T11:13:15.353Z,29.00
2023-05-20T11:18:20.242Z,29.00
2023-05-20T11:23:24.686Z,29.10
2023-05-20T11:28:28.282Z,29.40
2023-05-20T11:33:32.962Z,29.10
2023-05-20T11:38:36.539Z,29.10
2023-05-20T11:43:41.627Z,29.10
2023-05-20T11:48:54.886Z,29.10
2023-05-20T11:54:02.584Z,29.20
2023-05-20T11:59:07.347Z,29.00
2023-05-20T12:04:13.420Z,28.50
2023-05-20T12:09:17.098Z,28.30
2023-05-20T12:14:20.320Z,28.50
2023-05-20T12:19:26.111Z,28.10
2023-05-20T12:24:29.266Z,27.50
2023-05-20T12:29:32.387Z,27.90
2023-05-20T12:34:36.997Z,28.10
2023-05-20T12:39:40.138Z,27.80
2023-05-20T12:44:43.260Z,28.40
2023-05-20T12:49:48.966Z,28.40
2023-05-20T12:54:52.753Z,27.50
2023-05-20T12:59:56.727Z,28.20
2023-05-20T13:05:01.358Z,28.10
2023-05-20T13:10:04.879Z,27.80
2023-05-20T13:15:09.279Z,27.80
2023-05-20T13:20:14.619Z,27.20
2023-05-20T13:25:17.834Z,27.10
2023-05-20T13:30:20.934Z,27.30
2023-05-20T13:35:25.576Z,26.90
2023-05-20T13:40:28.748Z,26.60
2023-05-20T13:45:31.947Z,26.50
2023-05-20T13:50:36.649Z,26.50
2023-05-20T13:55:40.036Z,26.10
2023-05-20T14:00:43.288Z,26.00
2023-05-20T14:05:48.232Z,26.10
2023-05-20T14:10:54.763Z,25.40
2023-05-20T14:15:58.151Z,25.70
2023-05-20T14:21:02.713Z,25.40
2023-05-20T14:26:05.925Z,24.80
2023-05-20T14:31:10.760Z,25.20
2023-05-20T14:36:15.323Z,25.00
2023-05-20T14:41:18.695Z,24.10
2023-05-20T14:46:23.133Z,24.60
2023-05-20T14:51:28.188Z,24.50
2023-05-20T14:56:32.024Z,24.40
2023-05-20T15:01:35.442Z,24.30
2023-05-20T15:06:40.308Z,24.50
2023-05-20T15:11:43.703Z,23.80
2023-05-20T15:16:47.432Z,24.10
2023-05-20T15:21:52.684Z,24.20
2023-05-20T15:26:56.136Z,23.70
2023-05-20T15:32:00.033Z,24.10
2023-05-20T15:37:04.769Z,23.80
2023-05-20T15:42:08.194Z,23.80
2023-05-20T15:47:11.359Z,23.90
2023-05-20T15:52:16.227Z,24.00
2023-05-20T15:57:19.598Z,23.90
2023-05-20T16:02:23.068Z,24.30
2023-05-20T16:07:28.050Z,23.90
2023-05-20T16:12:31.396Z,23.80
2023-05-20T16:17:34.645Z,23.90
2023-05-20T16:22:39.184Z,24.00
2023-05-20T16:27:42.355Z,24.30
2023-05-20T16:32:45.535Z,23.90
2023-05-20T16:37:51.210Z,23.90
2023-05-20T16:42:54.339Z,23.70
2023-05-20T16:47:57.576Z,23.90
2023-05-20T16:53:02.159Z,23.90
2023-05-20T16:58:05.291Z,23.70
2023-05-20T17:03:08.682Z,23.60
2023-05-20T17:08:13.194Z,23.80
2023-05-20T17:13:16.434Z,23.80
2023-05-20T17:18:19.542Z,24.00
2023-05-20T17:23:24.134Z,24.10
2023-05-20T17:28:27.265Z,23.90
2023-05-20T17:33:30.562Z,24.20
2023-05-20T17:38:35.170Z,24.20
2023-05-20T17:43:38.332Z,24.10
2023-05-20T17:48:41.560Z,24.30
2023-05-20T17:53:46.849Z,24.20
2023-05-20T17:58:50.012Z,24.10
2023-05-20T18:03:53.346Z,24.40
2023-05-20T18:09:00.007Z,24.50
2023-05-20T18:14:03.771Z,24.60
2023-05-20T18:19:07.038Z,24.80
2023-05-20T18:24:12.014Z,24.80
2023-05-20T18:29:15.150Z,25.00
2023-05-20T18:34:18.414Z,25.10
2023-05-20T18:39:22.996Z,25.30
2023-05-20T18:44:26.883Z,25.50
2023-05-20T18:49:30.183Z,25.50
2023-05-20T18:54:34.808Z,25.50
2023-05-20T18:59:38.136Z,25.80
2023-05-20T19:04:41.471Z,25.90
2023-05-20T19:09:46.069Z,26.00
2023-05-20T19:14:49.201Z,26.20
2023-05-20T19:19:52.710Z,26.10
2023-05-20T19:24:57.537Z,26.30
2023-05-20T19:30:00.953Z,26.60
2023-05-20T19:35:05.727Z,26.60
2023-05-20T19:40:12.000Z,26.70
2023-05-20T19:45:15.271Z,27.10
2023-05-20T19:50:18.504Z,26.90
2023-05-20T19:55:23.119Z,27.00
2023-05-20T20:00:26.477Z,27.30
2023-05-20T20:05:30.698Z,27.20
2023-05-20T20:10:37.526Z,27.60
2023-05-20T20:15:40.956Z,27.80
2023-05-20T20:20:44.227Z,27.70
2023-05-20T20:25:50.670Z,27.70
2023-05-20T20:30:54.022Z,27.60
2023-05-20T20:35:57.306Z,27.60
2023-05-20T20:41:03.793Z,27.50
2023-05-20T20:46:07.384Z,27.90
2023-05-20T20:51:10.675Z,28.00
2023-05-20T20:56:15.371Z,28.10
2023-05-20T21:01:18.526Z,28.40
2023-05-20T21:06:21.845Z,28.20
2023-05-20T21:11:28.028Z,28.30
2023-05-20T21:16:31.198Z,28.50
2023-05-20T21:21:34.335Z,28.40
2023-05-20T21:26:38.823Z,28.50
2023-05-20T21:31:42.083Z,28.80
2023-05-20T21:36:45.188Z,28.60
2023-05-20T21:41:49.660Z,28.60
2023-05-20T21:46:53.021Z,28.80
2023-05-20T21:51:56.386Z,28.70
2023-05-20T21:57:02.585Z,28.80
2023-05-20T22:02:06.260Z,29.00
2023-05-20T22:07:09.442Z,28.90
2023-05-20T22:12:15.542Z,28.90
2023-05-20T22:17:18.886Z,29.30
2023-05-20T22:22:22.128Z,29.10
2023-05-20T22:27:26.671Z,29.80
2023-05-20T22:32:29.843Z,29.30
2023-05-20T22:37:33.538Z,29.30
2023-05-20T22:42:38.210Z,29.20
2023-05-20T22:47:41.375Z,29.50
2023-05-20T22:52:45.164Z,29.40
2023-05-20T22:57:49.636Z,29.40
2023-05-20T23:02:52.833Z,29.60
2023-05-20T23:07:56.076Z,29.50
2023-05-20T23:13:00.580Z,29.40
2023-05-20T23:18:03.997Z,29.60
2023-05-20T23:23:11.288Z,29.50
2023-05-20T23:28:16.226Z,29.50
2023-05-20T23:33:24.244Z,29.70
2023-05-20T23:38:28.126Z,29.60
2023-05-20T23:43:32.646Z,29.60
2023-05-20T23:48:36.066Z,29.70
2023-05-20T23:53:39.216Z,29.60
2023-05-20T23:58:43.719Z,29.60
